Time;durP1;ratioP1;P1;durP2;ratioP2;P2;SDS_P1;SDS_P2;PMS_P1;PMS_P2;Temp;Humidity;BMP_temperature;BMP_pressure;BME280_temperature;BME280_humidity;BME280_pressure;Samples;Min_cycle;Max_cycle;Signal;HPM_P1;HPM_P2
2023/11/19 00:00:57;;;;;;;;;;;10.20;69.00;;;5.71;100.00;95783.44;4990375;28;19910;-57
2023/11/19 00:03:23;;;;;;;;;;;10.30;69.00;;;5.72;100.00;95781.59;4994701;28;19909;-57
2023/11/19 00:05:49;;;;;;;;;;;10.30;69.00;;;5.72;100.00;95777.09;4990351;28;19909;-56
2023/11/19 00:08:15;;;;;;;;;;;10.30;68.90;;;5.74;100.00;95782.19;4994966;28;20279;-58
2023/11/19 00:10:40;;;;;;;;;;;10.30;68.90;;;5.74;100.00;95771.63;4994730;28;19909;-58
2023/11/19 00:13:07;;;;;;;;;;;10.40;68.90;;;5.75;100.00;95760.00;4992092;28;19921;-58
2023/11/19 00:15:33;;;;;;;;;;;10.40;68.90;;;5.73;100.00;95739.06;4994012;28;20364;-58
2023/11/19 00:17:58;;;;;;;;;;;10.40;68.90;;;5.72;100.00;95732.19;4989988;28;20306;-58
2023/11/19 00:20:24;;;;;;;;;;;10.40;68.90;;;5.73;100.00;95735.63;4992370;28;19916;-56
2023/11/19 00:22:53;;;;;;;;;;;10.40;68.90;;;5.69;100.00;95726.56;4994536;28;19913;-56
2023/11/19 00:25:21;;;;;;;;;;;10.40;68.80;;;5.69;100.00;95713.34;4990698;28;20040;-57
2023/11/19 00:27:47;;;;;;;;;;;10.40;68.80;;;5.70;100.00;95736.06;4994486;28;19910;-57
2023/11/19 00:30:15;;;;;;;;;;;10.40;68.80;;;5.71;100.00;95727.94;4992257;28;19909;-58
2023/11/19 00:32:41;;;;;;;;;;;10.40;68.80;;;5.71;100.00;95724.50;4994474;28;19913;-56
2023/11/19 00:35:09;;;;;;;;;;;10.40;68.80;;;5.71;100.00;95714.72;4991376;28;19917;-59
2023/11/19 00:37:36;;;;;;;;;;;10.40;68.90;;;5.72;100.00;95716.31;4983336;28;19913;-59
2023/11/19 00:40:05;;;;;;;;;;;10.40;68.90;;;5.73;100.00;95714.47;4994273;28;19921;-59
2023/11/19 00:42:31;;;;;;;;;;;10.40;68.90;;;5.72;100.00;95710.22;4989734;28;19936;-59
2023/11/19 00:44:57;;;;;;;;;;;10.40;69.00;;;5.72;100.00;95707.59;4993563;28;19967;-59
2023/11/19 00:47:24;;;;;;;;;;;10.40;69.10;;;5.72;100.00;95718.16;4989820;28;19917;-58
2023/11/19 00:49:50;;;;;;;;;;;10.40;69.10;;;5.68;100.00;95699.31;4991471;28;19939;-59
2023/11/19 00:52:18;;;;;;;;;;;10.40;69.20;;;5.70;100.00;95697.25;4994222;28;19909;-59
2023/11/19 00:54:44;;;;;;;;;;;10.40;69.20;;;5.70;100.00;95675.28;4989476;28;20383;-57
2023/11/19 00:57:10;;;;;;;;;;;10.40;69.20;;;5.74;100.00;95679.91;4993878;28;19916;-55
2023/11/19 00:59:36;;;;;;;;;;;10.40;69.20;;;5.77;100.00;95684.72;4990375;28;19924;-59
2023/11/19 01:02:03;;;;;;;;;;;10.40;69.40;;;5.82;100.00;95686.66;4993694;28;19958;-58
2023/11/19 01:04:36;;;;;;;;;;;10.40;69.50;;;5.90;100.00;95704.03;4993374;28;19913;-58
2023/11/19 01:07:05;;;;;;;;;;;10.40;69.70;;;5.95;100.00;95704.94;4990065;28;19909;-59
2023/11/19 01:09:34;;;;;;;;;;;10.50;69.80;;;5.99;100.00;95703.47;4993548;28;19920;-57
2023/11/19 01:12:01;;;;;;;;;;;10.50;69.80;;;6.03;100.00;95677.34;4982617;28;19963;-59
2023/11/19 01:14:28;;;;;;;;;;;10.60;69.90;;;6.05;100.00;95679.75;4976321;28;19916;-58
2023/11/19 01:16:54;;;;;;;;;;;10.60;69.80;;;6.10;100.00;95685.94;4979527;28;19914;-56
2023/11/19 01:19:22;;;;;;;;;;;10.60;69.90;;;6.13;100.00;95687.34;4973944;28;20406;-55
2023/11/19 01:21:51;;;;;;;;;;;10.70;69.90;;;6.18;100.00;95684.81;4979520;28;19910;-58
2023/11/19 01:24:17;;;;;;;;;;;10.70;69.90;;;6.18;100.00;95680.31;4975240;28;20268;-57
2023/11/19 01:26:46;;;;;;;;;;;10.70;69.80;;;6.21;100.00;95679.03;4978540;28;19950;-57
2023/11/19 01:29:16;;;;;;;;;;;10.70;69.80;;;6.20;100.00;95665.00;4975036;28;19925;-56
2023/11/19 01:31:43;;;;;;;;;;;10.80;69.90;;;6.20;100.00;95657.06;4970536;28;19909;-56
2023/11/19 01:34:10;;;;;;;;;;;10.80;69.90;;;6.25;100.00;95664.31;4978019;28;19917;-57
2023/11/19 01:36:35;;;;;;;;;;;10.80;70.00;;;6.31;100.00;95660.72;4954136;28;21011;-58
2023/11/19 01:39:02;;;;;;;;;;;10.90;70.10;;;6.38;100.00;95658.72;4968868;28;19913;-55
2023/11/19 01:41:28;;;;;;;;;;;10.90;70.30;;;6.47;100.00;95659.97;4968215;28;19910;-57
2023/11/19 01:43:54;;;;;;;;;;;10.90;70.40;;;6.55;100.00;95658.78;4970153;28;19983;-58
2023/11/19 01:46:20;;;;;;;;;;;11.00;70.60;;;6.60;100.00;95660.72;4969550;28;19914;-58
2023/11/19 01:48:46;;;;;;;;;;;11.00;70.70;;;6.65;100.00;95656.31;4967187;28;20291;-59
2023/11/19 01:51:17;;;;;;;;;;;11.10;70.90;;;6.70;100.00;95650.31;4969889;28;19909;-57
2023/11/19 01:53:44;;;;;;;;;;;11.10;70.90;;;6.72;100.00;95649.03;4969224;28;19948;-58
2023/11/19 01:56:14;;;;;;;;;;;11.20;71.00;;;6.76;100.00;95651.19;4941335;28;20288;-57
2023/11/19 01:58:44;;;;;;;;;;;11.20;71.00;;;6.80;100.00;95644.38;4970000;28;20050;-56
2023/11/19 02:01:12;;;;;;;;;;;11.30;71.00;;;6.86;100.00;95648.72;4949857;28;19933;-57
2023/11/19 02:03:38;;;;;;;;;;;11.30;71.00;;;6.93;100.00;95630.84;4969297;28;20361;-59
2023/11/19 02:06:05;;;;;;;;;;;11.40;71.00;;;6.97;100.00;95623.22;4965127;28;20343;-56
2023/11/19 02:08:31;;;;;;;;;;;11.40;70.90;;;6.99;100.00;95650.25;4969104;28;20372;-56
2023/11/19 02:10:57;;;;;;;;;;;11.40;70.80;;;7.02;100.00;95644.47;4967634;28;19917;-58
2023/11/19 02:13:26;;;;;;;;;;;11.50;70.80;;;7.04;100.00;95631.81;4970359;28;19910;-57
2023/11/19 02:15:52;;;;;;;;;;;11.50;70.70;;;7.04;100.00;95618.56;4950628;28;19910;-58
2023/11/19 02:18:30;;;;;;;;;;;11.50;70.60;;;7.06;100.00;95605.91;4961877;28;19914;-56
2023/11/19 02:20:59;;;;;;;;;;;11.60;70.70;;;7.05;100.00;95612.22;4969509;28;19917;-57
2023/11/19 02:23:30;;;;;;;;;;;11.60;70.50;;;7.07;100.00;95612.78;4964852;28;19937;-56
2023/11/19 02:26:13;;;;;;;;;;;11.60;70.50;;;7.05;100.00;95602.44;4967280;28;19916;-57
2023/11/19 02:28:41;;;;;;;;;;;11.60;70.40;;;7.08;100.00;95609.09;4966412;28;19946;-56
2023/11/19 02:31:09;;;;;;;;;;;11.60;70.40;;;7.06;100.00;95612.00;4952369;28;19909;-55
2023/11/19 02:33:36;;;;;;;;;;;11.70;70.40;;;7.10;100.00;95609.66;4972759;28;19960;-58
2023/11/19 02:36:06;;;;;;;;;;;11.70;70.40;;;7.10;100.00;95602.50;4994233;23;19961;-53
2023/11/19 02:38:34;;;;;;;;;;;11.70;70.40;;;7.16;100.00;95608.69;4990679;28;19967;-53
2023/11/19 02:41:05;;;;;;;;;;;11.70;70.40;;;7.18;100.00;95611.91;4985464;28;19972;-54
2023/11/19 02:43:35;;;;;;;;;;;11.70;70.30;;;7.20;100.00;95615.09;4983161;28;20294;-51
2023/11/19 02:46:08;;;;;;;;;;;11.80;70.40;;;7.19;100.00;95618.81;4990334;28;19913;-54
2023/11/19 02:48:37;;;;;;;;;;;11.80;70.30;;;7.21;100.00;95618.53;4970255;28;19913;-53
2023/11/19 02:51:04;;;;;;;;;;;11.80;70.20;;;7.21;100.00;95639.75;4974215;28;19956;-53
2023/11/19 02:53:31;;;;;;;;;;;11.90;70.30;;;7.18;100.00;95656.94;4967869;28;20336;-50
2023/11/19 02:56:05;;;;;;;;;;;11.90;70.20;;;7.16;100.00;95665.13;4973612;28;19909;-53
2023/11/19 02:58:32;;;;;;;;;;;11.90;70.10;;;7.18;100.00;95649.78;4992151;28;19916;-52
2023/11/19 03:00:59;;;;;;;;;;;11.90;70.10;;;7.22;100.00;95646.66;4970275;28;19913;-51
2023/11/19 03:03:30;;;;;;;;;;;11.90;70.20;;;7.22;100.00;95641.38;4991807;28;20339;-51
2023/11/19 03:05:57;;;;;;;;;;;11.90;70.10;;;7.22;100.00;95636.06;4987442;28;19914;-50
2023/11/19 03:08:23;;;;;;;;;;;11.90;70.10;;;7.22;100.00;95628.13;4991491;28;19917;-49
2023/11/19 03:10:49;;;;;;;;;;;11.80;70.10;;;7.21;100.00;95621.19;4986217;28;19920;-51
2023/11/19 03:13:19;;;;;;;;;;;11.80;70.10;;;7.21;100.00;95623.84;4968753;28;20012;-50
2023/11/19 03:15:45;;;;;;;;;;;11.80;70.20;;;7.19;100.00;95624.91;4989990;28;20368;-50
2023/11/19 03:18:11;;;;;;;;;;;11.70;70.20;;;7.17;100.00;95619.03;4987796;28;19924;-52
2023/11/19 03:20:37;;;;;;;;;;;11.70;70.30;;;7.18;100.00;95622.50;4973350;28;19936;-50
2023/11/19 03:23:03;;;;;;;;;;;11.70;70.30;;;7.15;100.00;95620.34;4989683;28;19909;-53
2023/11/19 03:25:36;;;;;;;;;;;11.70;70.40;;;7.14;100.00;95619.50;4990215;28;19909;-51
2023/11/19 03:28:03;;;;;;;;;;;11.60;70.50;;;7.14;100.00;95624.81;4991418;28;20372;-52
2023/11/19 03:30:31;;;;;;;;;;;11.60;70.50;;;7.11;100.00;95616.53;4987443;28;20327;-50
2023/11/19 03:32:58;;;;;;;;;;;11.60;70.60;;;7.12;100.00;95615.53;4991262;28;20332;-54
2023/11/19 03:35:24;;;;;;;;;;;11.60;70.70;;;7.11;100.00;95622.66;4993703;28;19952;-53
2023/11/19 03:37:51;;;;;;;;;;;11.60;70.70;;;7.10;100.00;95614.94;5003633;28;19909;-49
2023/11/19 03:40:18;;;;;;;;;;;11.60;70.90;;;7.13;100.00;95623.22;5010451;28;20345;-50
2023/11/19 03:42:46;;;;;;;;;;;11.60;70.90;;;7.14;100.00;95618.72;5005699;28;19909;-50
2023/11/19 03:45:12;;;;;;;;;;;11.60;71.00;;;7.14;100.00;95622.16;5006240;28;20325;-51
2023/11/19 03:47:38;;;;;;;;;;;11.60;71.10;;;7.17;100.00;95620.88;5006233;28;19955;-50
2023/11/19 03:50:07;;;;;;;;;;;11.60;71.20;;;7.18;100.00;95636.56;5010293;28;19917;-52
2023/11/19 03:52:33;;;;;;;;;;;11.60;71.30;;;7.23;100.00;95630.50;5010510;28;19909;-52
2023/11/19 03:54:59;;;;;;;;;;;11.60;71.40;;;7.27;100.00;95623.72;5005828;28;19912;-51
2023/11/19 03:57:25;;;;;;;;;;;11.60;71.40;;;7.29;100.00;95616.31;5010166;28;19935;-52
2023/11/19 03:59:50;;;;;;;;;;;11.60;71.50;;;7.31;100.00;95627.47;5006132;28;20351;-50
2023/11/19 04:02:17;;;;;;;;;;;11.70;71.40;;;7.34;100.00;95637.59;5010388;28;19913;-50
2023/11/19 04:04:43;;;;;;;;;;;11.70;71.40;;;7.35;100.00;95639.19;5010127;28;19909;-53
2023/11/19 04:07:09;;;;;;;;;;;11.70;71.40;;;7.39;100.00;95635.00;5005886;28;20298;-51
2023/11/19 04:09:38;;;;;;;;;;;11.70;71.50;;;7.41;100.00;95642.72;5010673;28;19920;-54
2023/11/19 04:12:04;;;;;;;;;;;11.80;71.50;;;7.42;100.00;95644.31;5003670;28;19909;-52
2023/11/19 04:14:30;;;;;;;;;;;11.80;71.50;;;7.44;100.00;95647.53;5008088;28;19968;-51
2023/11/19 04:16:56;;;;;;;;;;;11.80;71.50;;;7.46;100.00;95653.41;5008224;28;19960;-55
2023/11/19 04:19:22;;;;;;;;;;;11.80;71.50;;;7.47;100.00;95657.66;5008786;28;20256;-51
2023/11/19 04:21:48;;;;;;;;;;;11.80;71.50;;;7.48;100.00;95667.19;5010267;28;19913;-50
2023/11/19 04:24:15;;;;;;;;;;;11.90;71.50;;;7.47;100.00;95668.25;5005914;28;19909;-51
2023/11/19 04:26:45;;;;;;;;;;;11.90;71.50;;;7.45;100.00;95672.97;5008255;28;19917;-51
2023/11/19 04:29:19;;;;;;;;;;;11.90;71.50;;;7.47;100.00;95675.41;5006496;28;19976;-50
2023/11/19 04:31:46;;;;;;;;;;;11.90;71.40;;;7.44;100.00;95657.34;5004457;28;20004;-50
2023/11/19 04:34:12;;;;;;;;;;;11.90;71.40;;;7.46;100.00;95650.75;5010397;28;20330;-51
2023/11/19 04:36:38;;;;;;;;;;;11.90;71.40;;;7.47;100.00;95654.19;5006382;28;19917;-51
2023/11/19 04:39:09;;;;;;;;;;;11.80;71.40;;;7.47;100.00;95649.69;5006883;28;19913;-51
2023/11/19 04:41:36;;;;;;;;;;;11.90;71.50;;;7.48;100.00;95656.59;5012677;28;19909;-52
2023/11/19 04:44:02;;;;;;;;;;;11.80;71.40;;;7.48;100.00;95658.44;5012486;28;19916;-50
2023/11/19 04:46:28;;;;;;;;;;;11.90;71.50;;;7.51;100.00;95657.97;5013356;28;19915;-50
2023/11/19 04:48:53;;;;;;;;;;;11.80;71.50;;;7.54;100.00;95655.63;5009284;28;19916;-52
2023/11/19 04:51:19;;;;;;;;;;;11.80;71.60;;;7.56;100.00;95658.84;5013391;28;19913;-51
2023/11/19 04:53:45;;;;;;;;;;;11.90;71.60;;;7.56;100.00;95663.34;5010011;28;20420;-51
2023/11/19 04:56:13;;;;;;;;;;;11.90;71.60;;;7.57;100.00;95657.00;5013029;28;19909;-51
2023/11/19 04:58:39;;;;;;;;;;;11.90;71.70;;;7.57;100.00;95665.75;5013933;28;19944;-52
2023/11/19 05:01:05;;;;;;;;;;;11.90;71.70;;;7.61;100.00;95666.84;5008039;28;20003;-50
2023/11/19 05:03:31;;;;;;;;;;;11.90;71.80;;;7.65;100.00;95662.69;5013836;28;20008;-56
2023/11/19 05:05:59;;;;;;;;;;;12.00;72.00;;;7.72;100.00;95651.91;5009245;28;20391;-52
2023/11/19 05:08:25;;;;;;;;;;;12.00;72.00;;;7.79;100.00;95651.72;4996086;28;19919;-52
2023/11/19 05:10:50;;;;;;;;;;;12.00;72.10;;;7.84;100.00;95655.25;5013209;28;19959;-53
2023/11/19 05:13:17;;;;;;;;;;;12.10;73.00;;;7.92;100.00;95656.66;5007948;28;19913;-52
2023/11/19 05:15:42;;;;;;;;;;;12.10;72.30;;;7.97;100.00;95655.94;4994922;28;19909;-55
2023/11/19 05:18:08;;;;;;;;;;;12.20;72.40;;;8.00;100.00;95661.56;5009329;28;19916;-52
2023/11/19 05:20:34;;;;;;;;;;;12.20;72.40;;;8.05;100.00;95663.47;4995528;28;20291;-54
2023/11/19 05:23:00;;;;;;;;;;;12.30;72.50;;;8.10;100.00;95666.19;5012415;28;20024;-56
2023/11/19 05:25:27;;;;;;;;;;;12.30;72.50;;;8.13;100.00;95662.25;5011144;28;19920;-54
2023/11/19 05:27:53;;;;;;;;;;;12.30;72.50;;;8.17;100.00;95666.78;4995616;28;19913;-52
2023/11/19 05:30:19;;;;;;;;;;;12.40;72.50;;;8.18;100.00;95675.56;5005550;28;20002;-53
2023/11/19 05:32:45;;;;;;;;;;;12.40;72.60;;;8.22;100.00;95669.53;5005461;28;19940;-54
2023/11/19 05:35:11;;;;;;;;;;;12.50;72.60;;;8.25;100.00;95673.53;5009582;28;19923;-56
2023/11/19 05:37:38;;;;;;;;;;;12.50;72.60;;;8.27;100.00;95666.94;5008601;28;19915;-50
2023/11/19 05:40:12;;;;;;;;;;;12.50;72.60;;;8.28;100.00;95660.56;5007910;28;19909;-55
2023/11/19 05:42:38;;;;;;;;;;;12.50;72.60;;;8.34;100.00;95672.06;5010055;28;19909;-54
2023/11/19 05:45:04;;;;;;;;;;;12.60;72.70;;;8.39;100.00;95656.19;5012383;28;20020;-53
2023/11/19 05:47:29;;;;;;;;;;;12.60;72.70;;;8.43;100.00;95656.50;4982666;28;20336;-54
2023/11/19 05:49:55;;;;;;;;;;;12.60;72.70;;;8.46;100.00;95656.84;5010833;28;19920;-52
2023/11/19 05:52:22;;;;;;;;;;;12.60;72.70;;;8.48;100.00;95667.97;5012180;28;20095;-54
2023/11/19 05:54:51;;;;;;;;;;;12.70;72.70;;;8.47;100.00;95661.09;5007718;28;19916;-52
2023/11/19 05:57:22;;;;;;;;;;;12.80;72.80;;;8.52;100.00;95655.00;5011550;28;20279;-53
2023/11/19 05:59:48;;;;;;;;;;;12.80;72.80;;;8.53;100.00;95656.63;5008095;28;19916;-52
2023/11/19 06:02:14;;;;;;;;;;;12.80;72.70;;;8.54;100.00;95648.41;5010458;28;19909;-55
2023/11/19 06:04:41;;;;;;;;;;;12.80;72.80;;;8.58;100.00;95652.16;5008285;28;19956;-55
2023/11/19 06:07:07;;;;;;;;;;;12.80;72.80;;;8.59;100.00;95652.97;4992671;28;19959;-53
2023/11/19 06:09:33;;;;;;;;;;;12.80;72.80;;;8.60;100.00;95648.47;5011902;28;20356;-52
2023/11/19 06:12:01;;;;;;;;;;;12.90;72.90;;;8.64;100.00;95653.03;5008246;28;19913;-53
2023/11/19 06:14:27;;;;;;;;;;;12.90;73.00;;;8.67;100.00;95652.53;5012004;28;19920;-54
2023/11/19 06:16:53;;;;;;;;;;;12.90;73.00;;;8.70;100.00;95657.31;5011291;28;19919;-57
2023/11/19 06:19:19;;;;;;;;;;;12.90;73.10;;;8.76;100.00;95658.19;5008581;28;19909;-53
2023/11/19 06:21:45;;;;;;;;;;;13.00;73.20;;;8.77;100.00;95655.28;5011892;28;19912;-51
2023/11/19 06:24:11;;;;;;;;;;;13.00;73.30;;;8.80;100.00;95662.72;5010116;28;19916;-53
2023/11/19 06:26:36;;;;;;;;;;;13.00;73.30;;;8.83;100.00;95660.63;5011114;28;19924;-51
2023/11/19 06:29:02;;;;;;;;;;;13.10;73.40;;;8.87;100.00;95662.56;5010941;28;19952;-56
2023/11/19 06:31:28;;;;;;;;;;;13.10;73.50;;;8.92;100.00;95659.94;5001787;28;19909;-53
2023/11/19 06:33:54;;;;;;;;;;;13.10;73.50;;;8.97;100.00;95656.53;5011913;28;20461;-52
2023/11/19 06:36:19;;;;;;;;;;;13.20;73.60;;;8.99;100.00;95657.06;5006777;28;19940;-54
2023/11/19 06:38:45;;;;;;;;;;;13.20;73.60;;;9.04;100.00;95662.44;4999201;28;19962;-56
2023/11/19 06:41:11;;;;;;;;;;;13.20;73.70;;;9.07;100.00;95658.47;5009563;28;20030;-56
2023/11/19 06:43:37;;;;;;;;;;;13.30;73.80;;;9.13;100.00;95671.56;5011215;28;19924;-55
2023/11/19 06:46:05;;;;;;;;;;;13.30;73.80;;;9.15;100.00;95663.31;5010840;28;19932;-55
2023/11/19 06:48:32;;;;;;;;;;;13.30;73.80;;;9.19;100.00;95662.56;5008437;28;19913;-53
2023/11/19 06:50:59;;;;;;;;;;;13.40;73.90;;;9.24;100.00;95661.78;5009891;28;19921;-52
2023/11/19 06:53:25;;;;;;;;;;;13.40;73.90;;;9.27;100.00;95653.31;4990194;28;20353;-54
2023/11/19 06:55:51;;;;;;;;;;;13.40;74.00;;;9.33;100.00;95654.94;5001172;28;19913;-54
2023/11/19 06:58:17;;;;;;;;;;;13.50;74.10;;;9.36;100.00;95669.59;4996394;28;19917;-58
2023/11/19 07:00:43;;;;;;;;;;;13.50;74.10;;;9.41;100.00;95670.44;4995492;28;19987;-53
2023/11/19 07:03:09;;;;;;;;;;;13.60;74.20;;;9.45;100.00;95668.88;4997027;28;19967;-56
2023/11/19 07:05:38;;;;;;;;;;;13.60;74.20;;;9.47;100.00;95663.31;4998004;28;19909;-52
2023/11/19 07:08:07;;;;;;;;;;;13.70;74.20;;;9.52;100.00;95658.00;5002797;28;20375;-54
2023/11/19 07:10:33;;;;;;;;;;;13.70;74.20;;;9.58;100.00;95658.84;4997837;28;19964;-53
2023/11/19 07:13:00;;;;;;;;;;;13.70;74.10;;;9.58;100.00;95653.53;5004546;28;19909;-51
2023/11/19 07:15:26;;;;;;;;;;;13.80;74.20;;;9.63;100.00;95653.59;5010406;28;19978;-55
2023/11/19 07:17:54;;;;;;;;;;;13.80;74.10;;;9.66;100.00;95655.72;5007309;28;20318;-52
2023/11/19 07:20:20;;;;;;;;;;;13.80;74.10;;;9.67;100.00;95654.66;5010949;28;19909;-55
2023/11/19 07:22:46;;;;;;;;;;;13.90;74.20;;;9.72;100.00;95660.81;5011109;28;19920;-55
2023/11/19 07:25:14;;;;;;;;;;;13.90;74.10;;;9.73;100.00;95669.59;5008033;28;19917;-53
2023/11/19 07:27:40;;;;;;;;;;;14.00;74.10;;;9.74;100.00;95665.88;5010929;28;19909;-57
2023/11/19 07:30:07;;;;;;;;;;;14.00;74.20;;;9.81;100.00;95658.50;4988942;28;20351;-56
2023/11/19 07:32:33;;;;;;;;;;;14.00;74.20;;;9.84;100.00;95665.94;4993634;28;20004;-53
2023/11/19 07:34:59;;;;;;;;;;;14.10;74.10;;;9.84;100.00;95667.78;5010382;28;20391;-54
2023/11/19 07:37:25;;;;;;;;;;;14.10;74.20;;;9.86;100.00;95679.78;5004652;28;20000;-56
2023/11/19 07:39:51;;;;;;;;;;;14.10;74.20;;;9.90;100.00;95682.72;5006845;28;19916;-54
2023/11/19 07:42:17;;;;;;;;;;;14.10;74.20;;;9.92;100.00;95689.41;5002365;28;19909;-56
2023/11/19 07:44:46;;;;;;;;;;;14.20;74.30;;;9.95;100.00;95685.41;5009445;28;19935;-52
2023/11/19 07:47:12;;;;;;;;;;;14.20;74.20;;;9.92;100.00;95667.31;5003250;28;20447;-57
2023/11/19 07:49:39;;;;;;;;;;;14.20;74.20;;;9.96;100.00;95674.53;5009846;28;19974;-54
2023/11/19 07:52:05;;;;;;;;;;;14.30;74.30;;;9.96;100.00;95676.38;5010728;28;20342;-54
2023/11/19 07:54:30;;;;;;;;;;;14.20;74.20;;;10.01;100.00;95680.94;5007641;28;19958;-53
2023/11/19 07:56:56;;;;;;;;;;;14.30;74.30;;;9.99;100.00;95683.84;5010315;28;19967;-57
2023/11/19 07:59:22;;;;;;;;;;;14.30;74.40;;;10.00;100.00;95688.13;5007788;28;19913;-55
2023/11/19 08:01:48;;;;;;;;;;;14.30;74.40;;;10.05;100.00;95687.34;5010434;28;19917;-53
2023/11/19 08:04:14;;;;;;;;;;;14.30;75.20;;;10.05;100.00;95693.47;5010713;28;20360;-55
2023/11/19 08:06:40;;;;;;;;;;;14.30;74.40;;;10.05;100.00;95687.34;5003557;28;19917;-53
2023/11/19 08:09:06;;;;;;;;;;;14.40;74.40;;;10.06;100.00;95688.94;5009347;28;19951;-55
2023/11/19 08:11:33;;;;;;;;;;;14.40;74.40;;;10.08;100.00;95687.63;5001854;28;20008;-56
2023/11/19 08:13:59;;;;;;;;;;;14.40;74.40;;;10.09;100.00;95683.09;5014478;28;20379;-52
2023/11/19 08:16:25;;;;;;;;;;;14.40;74.40;;;10.05;100.00;95682.81;5014098;28;19909;-52
2023/11/19 08:18:51;;;;;;;;;;;14.40;74.50;;;10.07;100.00;95682.56;5011672;28;19913;-55
2023/11/19 08:21:16;;;;;;;;;;;14.40;75.30;;;10.14;100.00;95693.78;5014336;28;20272;-57
2023/11/19 08:23:42;;;;;;;;;;;14.40;74.50;;;10.13;100.00;95689.53;5012556;28;19916;-55
2023/11/19 08:26:08;;;;;;;;;;;14.50;74.60;;;10.18;100.00;95693.00;5012625;28;19974;-55
2023/11/19 08:28:34;;;;;;;;;;;14.50;74.60;;;10.17;100.00;95693.25;5014009;28;19913;-52
2023/11/19 08:31:01;;;;;;;;;;;14.50;74.60;;;10.19;100.00;95688.47;5011265;28;20782;-56
2023/11/19 08:33:27;;;;;;;;;;;14.50;74.60;;;10.23;100.00;95694.88;5014096;28;19975;-58
2023/11/19 08:35:53;;;;;;;;;;;14.50;74.60;;;10.23;100.00;95694.88;5010497;28;19917;-52
2023/11/19 08:38:18;;;;;;;;;;;14.50;74.60;;;10.22;100.00;95695.16;4989152;28;20368;-54
2023/11/19 08:40:44;;;;;;;;;;;14.60;74.60;;;10.22;100.00;95708.47;4999366;28;19909;-56
2023/11/19 08:43:10;;;;;;;;;;;14.60;74.60;;;10.26;100.00;95706.88;5008304;28;19909;-54
2023/11/19 08:45:36;;;;;;;;;;;14.60;74.60;;;10.26;100.00;95714.88;5012930;28;20005;-53
2023/11/19 08:48:02;;;;;;;;;;;14.60;74.60;;;10.31;100.00;95709.59;5010123;28;19944;-53
2023/11/19 08:50:28;;;;;;;;;;;14.60;74.50;;;10.30;100.00;95695.47;5013532;28;20286;-57
2023/11/19 08:52:54;;;;;;;;;;;14.60;74.50;;;10.34;100.00;95709.06;5001796;28;20450;-54
2023/11/19 08:55:20;;;;;;;;;;;14.70;74.60;;;10.39;100.00;95712.56;4977322;28;19916;-52
2023/11/19 08:57:46;;;;;;;;;;;14.70;74.50;;;10.44;100.00;95718.97;5013603;28;20000;-53
2023/11/19 09:00:14;;;;;;;;;;;14.80;74.50;;;10.42;100.00;95719.22;5005013;28;20005;-53
2023/11/19 09:02:40;;;;;;;;;;;14.80;74.40;;;10.47;100.00;95737.09;5012338;28;19931;-56
2023/11/19 09:05:10;;;;;;;;;;;14.80;74.40;;;10.45;100.00;95721.38;5005062;28;20334;-53
2023/11/19 09:07:35;;;;;;;;;;;14.80;74.40;;;10.50;100.00;95718.75;5011831;28;19948;-56
2023/11/19 09:10:01;;;;;;;;;;;14.90;74.40;;;10.53;100.00;95712.91;5011235;28;20410;-58
2023/11/19 09:12:27;;;;;;;;;;;14.90;74.40;;;10.55;100.00;95715.28;5001902;28;19920;-58
2023/11/19 09:14:54;;;;;;;;;;;14.90;74.30;;;10.57;100.00;95721.16;4998100;28;20297;-57
2023/11/19 09:17:19;;;;;;;;;;;14.90;74.20;;;10.58;100.00;95723.56;4997570;28;20520;-58
2023/11/19 09:19:45;;;;;;;;;;;14.90;74.20;;;10.60;100.00;95729.44;5012632;28;19916;-58
2023/11/19 09:22:11;;;;;;;;;;;14.90;74.20;;;10.62;100.00;95715.84;5012981;28;19999;-56
2023/11/19 09:24:37;;;;;;;;;;;15.00;74.30;;;10.62;100.00;95718.50;5009217;28;19963;-58
2023/11/19 09:27:03;;;;;;;;;;;15.00;74.30;;;10.65;100.00;95717.97;5005420;28;19975;-55
2023/11/19 09:29:32;;;;;;;;;;;15.00;74.30;;;10.70;100.00;95727.88;5009546;28;20366;-54
2023/11/19 09:31:58;;;;;;;;;;;15.00;74.30;;;10.69;100.00;95720.94;5012972;28;20348;-58
2023/11/19 09:34:24;;;;;;;;;;;15.00;74.30;;;10.70;100.00;95720.66;5012993;28;19952;-56
2023/11/19 09:36:50;;;;;;;;;;;15.00;74.20;;;10.72;100.00;95721.22;4991090;28;19917;-58
2023/11/19 09:39:17;;;;;;;;;;;15.10;74.30;;;10.74;100.00;95732.41;5005784;28;19963;-57
2023/11/19 09:41:45;;;;;;;;;;;15.10;74.30;;;10.71;100.00;95724.94;5004458;28;19909;-52
2023/11/19 09:44:11;;;;;;;;;;;15.10;74.30;;;10.77;100.00;95739.06;5012831;28;20004;-55
2023/11/19 09:46:41;;;;;;;;;;;15.10;74.30;;;10.79;100.00;95729.75;4994597;28;20006;-57
2023/11/19 09:49:10;;;;;;;;;;;15.10;74.20;;;10.82;100.00;95723.13;4991989;28;19917;-58
2023/11/19 09:51:37;;;;;;;;;;;15.20;74.20;;;10.87;100.00;95726.59;4995305;28;19924;-54
2023/11/19 09:54:03;;;;;;;;;;;15.20;74.20;;;10.83;100.00;95722.03;4991430;28;19916;-53
2023/11/19 09:56:29;;;;;;;;;;;15.20;74.10;;;10.84;100.00;95719.13;5011897;28;19916;-58
2023/11/19 09:58:56;;;;;;;;;;;15.30;74.10;;;10.90;100.00;95722.59;5011164;28;20299;-57
2023/11/19 10:01:21;;;;;;;;;;;15.30;74.00;;;10.93;100.00;95710.59;5009946;28;19939;-55
2023/11/19 10:03:49;;;;;;;;;;;15.40;74.10;;;10.97;100.00;95723.16;5012353;28;19916;-58
2023/11/19 10:06:15;;;;;;;;;;;15.40;74.00;;;11.02;100.00;95715.16;5008729;28;20274;-57
2023/11/19 10:08:43;;;;;;;;;;;15.40;73.90;;;10.99;100.00;95722.88;5012252;28;19913;-52
2023/11/19 10:11:13;;;;;;;;;;;15.30;73.90;;;10.98;100.00;95718.63;5001793;28;19913;-58
2023/11/19 10:13:39;;;;;;;;;;;15.30;73.90;;;10.97;100.00;95714.34;5006238;28;19909;-57
2023/11/19 10:16:11;;;;;;;;;;;15.30;73.80;;;10.93;100.00;95718.59;4994215;28;19909;-55
2023/11/19 10:18:38;;;;;;;;;;;15.30;73.80;;;10.95;100.00;95719.16;5008935;28;19924;-56
2023/11/19 10:21:07;;;;;;;;;;;15.40;73.90;;;10.87;100.00;95710.59;5012024;28;20490;-54
2023/11/19 10:23:53;;;;;;;;;;;15.30;73.80;;;10.88;100.00;95717.53;5009831;28;19916;-55
2023/11/19 10:26:21;;;;;;;;;;;15.30;73.80;;;10.91;100.00;95710.09;5011327;28;19955;-56
2023/11/19 10:28:48;;;;;;;;;;;15.30;73.80;;;10.91;100.00;95707.41;5011817;28;19917;-56
2023/11/19 10:31:24;;;;;;;;;;;15.30;73.90;;;10.91;100.00;95713.53;5008074;28;19943;-55
2023/11/19 10:33:51;;;;;;;;;;;15.30;73.90;;;10.88;100.00;95704.22;5001253;28;19962;-54
2023/11/19 10:36:17;;;;;;;;;;;15.20;73.80;;;10.84;100.00;95702.31;4990443;28;19917;-57
2023/11/19 10:38:55;;;;;;;;;;;15.30;73.90;;;10.88;100.00;95703.41;4987045;28;19909;-54
2023/11/19 10:41:31;;;;;;;;;;;15.30;73.90;;;10.94;100.00;95698.91;5003768;28;19916;-52
2023/11/19 10:44:00;;;;;;;;;;;15.30;73.90;;;10.98;100.00;95695.44;5011507;28;20346;-55
2023/11/19 10:46:41;;;;;;;;;;;15.40;73.90;;;10.91;100.00;95700.22;4993725;28;19967;-54
2023/11/19 10:49:08;;;;;;;;;;;15.40;73.90;;;10.94;100.00;95709.56;5008403;28;19919;-54
2023/11/19 10:51:34;;;;;;;;;;;15.40;73.90;;;10.86;100.00;95703.66;4993787;28;20583;-53
2023/11/19 10:54:07;;;;;;;;;;;15.40;73.90;;;10.91;100.00;95702.88;5008988;28;20418;-50
2023/11/19 10:56:35;;;;;;;;;;;15.40;73.80;;;10.86;100.00;95693.00;5005127;28;19912;-53
2023/11/19 10:59:03;;;;;;;;;;;15.40;73.80;;;10.91;100.00;95697.56;4993841;28;19917;-52
2023/11/19 11:01:45;;;;;;;;;;;15.40;73.80;;;10.97;100.00;95704.50;5009123;28;19994;-54
2023/11/19 11:04:25;;;;;;;;;;;15.40;73.80;;;11.03;100.00;95702.63;5010775;28;20255;-56
2023/11/19 11:06:54;;;;;;;;;;;15.50;73.90;;;11.01;100.00;95699.44;5007940;28;20436;-55
2023/11/19 11:09:21;;;;;;;;;;;15.50;73.80;;;10.98;100.00;95687.44;4993728;28;20019;-52
2023/11/19 11:11:47;;;;;;;;;;;15.50;73.80;;;11.04;100.00;95688.25;5002527;28;20272;-51
2023/11/19 11:14:16;;;;;;;;;;;15.60;73.80;;;11.02;100.00;95699.16;5011043;28;19909;-54